Pagina principale
METAR-TAF:

METAR-TAF

Aeroporti :

Tabarka, Tunisia

latitudine: 36-57N, longitudine: 008-45E, altezza: 20 m

Osservazione

Il bollettino è stato emesso 18 minuti fa, alle 16:00 UTC
Vento 6 kt da nord-ovest, variando fra ovest e nord/nord-ovest
Temperature 36°C
Umidità 16%
Pressione 1011 hPa
Visibilità 10 km o più
nessuna nube inferiore a 1500 m e nessun cumulonembo

METAR: DTKA 131600Z 31006KT 280V340 CAVOK 36/06 Q1011 NOSIG

Ora: 17:18 (16:18 UTC)

Previsione

Il bollettino è stato emesso 1 ora e 18 minuti fa, alle 15:00 UTC
Previsione valida dal 13 alle 16 UTC al 14 alle 01 UTC
Vento 6 kt da ovest/nord-ovest
Visibilità 10 km o più
nessuna nube inferiore a 1500 m e nessun cumulonembo

TAF: DTKA 131500Z 1316/1401 30006KT CAVOK

Osservazioni e previsioni meteorologiche di più di 4000 aeroporti (messaggi METAR e TAF).

Le stazioni disponibili sono rappresentate dai dischi gialli e rossi sulla carta.

Puntare il mouse per vedere il nome della stazione.

Clicca sopra per visualizzare le osservazioni e previsioni meteorologiche.

Per cambiare la mappa : fare clic sui pulsanti verdi con una croce nera per ingrandire, il pulsante verde con un trattino per diminuire, o sulla freccia verde per le mappe adiacenti.


METAR-TAF: